Time;durP1;ratioP1;P1;durP2;ratioP2;P2;SDS_P1;SDS_P2;PMS_P1;PMS_P2;Temp;Humidity;BMP_temperature;BMP_pressure;BME280_temperature;BME280_humidity;BME280_pressure;Samples;Min_cycle;Max_cycle;Signal;HPM_P1;HPM_P2
2023/10/03 00:00:24;;;;;;;202.93;190.67;;;;;;;17.68;100.00;101304.94;5013189;28;20489;-42
2023/10/03 00:02:55;;;;;;;200.47;187.97;;;;;;;17.66;100.00;101291.66;5013506;28;20437;-40
2023/10/03 00:05:28;;;;;;;201.70;189.10;;;;;;;17.67;100.00;101287.09;5013780;28;20437;-40
2023/10/03 00:07:57;;;;;;;213.33;199.03;;;;;;;17.66;100.00;101285.44;5010900;28;20440;-45
2023/10/03 00:10:26;;;;;;;203.50;192.20;;;;;;;17.66;100.00;101283.56;4993382;28;20523;-40
2023/10/03 00:12:53;;;;;;;200.83;188.97;;;;;;;17.66;100.00;101293.53;4993647;28;20446;-43
2023/10/03 00:15:23;;;;;;;203.07;192.20;;;;;;;17.64;100.00;101288.38;4993627;28;20975;-41
2023/10/03 00:17:52;;;;;;;220.60;205.40;;;;;;;17.64;100.00;101282.16;4993526;28;20426;-41
2023/10/03 00:20:22;;;;;;;200.30;189.37;;;;;;;17.65;100.00;101286.53;5018614;28;20461;-40
2023/10/03 00:22:52;;;;;;;207.37;194.43;;;;;;;17.66;100.00;101285.44;5013394;28;20444;-42
2023/10/03 00:25:23;;;;;;;193.83;183.63;;;;;;;17.65;100.00;101278.44;5013345;28;20436;-44
2023/10/03 00:27:52;;;;;;;206.17;191.43;;;;;;;17.65;100.00;101264.94;5019675;28;20950;-42
2023/10/03 00:30:22;;;;;;;202.10;189.50;;;;;;;17.65;100.00;101260.34;5012708;28;20531;-45
2023/10/03 00:32:52;;;;;;;210.40;195.70;;;;;;;17.64;100.00;101257.88;5013128;28;20436;-42
2023/10/03 00:35:20;;;;;;;200.83;188.27;;;;;;;17.63;100.00;101250.84;5013150;28;20447;-42
2023/10/03 00:37:51;;;;;;;210.77;196.93;;;;;;;17.62;100.00;101250.00;5012765;28;20432;-40
2023/10/03 00:40:27;;;;;;;207.63;194.63;;;;;;;17.60;100.00;101254.81;5012238;28;21007;-40
2023/10/03 00:42:58;;;;;;;206.53;193.73;;;;;;;17.59;100.00;101244.28;5013121;28;20428;-40
2023/10/03 00:45:27;;;;;;;196.17;183.67;;;;;;;17.57;100.00;101239.09;5013083;28;20433;-40
2023/10/03 00:47:56;;;;;;;192.23;180.70;;;;;;;17.54;100.00;101244.09;5012605;28;20476;-42
2023/10/03 00:50:26;;;;;;;199.93;186.00;;;;;;;17.50;100.00;101241.03;5012239;28;21042;-43
2023/10/03 00:52:57;;;;;;;193.10;181.70;;;;;;;17.47;100.00;101227.22;5012665;28;20443;-42
2023/10/03 00:55:27;;;;;;;199.17;187.10;;;;;;;17.44;100.00;101216.88;5012829;28;20437;-43
2023/10/03 00:58:06;;;;;;;191.47;180.97;;;;;;;17.42;100.00;101217.09;5012585;28;20433;-42
2023/10/03 01:00:38;;;;;;;192.13;180.90;;;;;;;17.38;100.00;101209.72;5012115;28;20889;-43
2023/10/03 01:03:06;;;;;;;198.63;186.53;;;;;;;17.34;100.00;101200.44;5012455;28;20520;-41
2023/10/03 01:05:35;;;;;;;200.93;188.57;;;;;;;17.29;100.00;101192.22;5012501;28;20425;-42
2023/10/03 01:08:04;;;;;;;205.57;193.53;;;;;;;17.26;100.00;101185.41;5012345;28;20458;-42
2023/10/03 01:10:34;;;;;;;202.57;190.67;;;;;;;17.24;100.00;101187.50;5012004;28;20914;-42
2023/10/03 01:13:08;;;;;;;194.03;182.40;;;;;;;17.17;100.00;101181.41;5012390;28;20445;-41
2023/10/03 01:15:36;;;;;;;196.83;185.37;;;;;;;17.13;100.00;101175.66;5012501;28;20912;-42
2023/10/03 01:18:05;;;;;;;203.20;190.83;;;;;;;17.10;100.00;101184.19;5011957;28;20465;-41
2023/10/03 01:20:40;;;;;;;215.87;200.07;;;;;;;17.07;100.00;101175.72;5011836;28;20491;-40
2023/10/03 01:23:10;;;;;;;201.53;189.50;;;;;;;17.02;100.00;101171.00;5012439;28;21141;-42
2023/10/03 01:25:42;;;;;;;207.47;194.67;;;;;;;16.99;100.00;101158.00;5012360;28;20536;-42
2023/10/03 01:28:10;;;;;;;210.90;197.40;;;;;;;16.96;100.00;101150.41;5018830;28;20433;-40
2023/10/03 01:30:40;;;;;;;197.70;186.70;;;;;;;16.94;100.00;101140.88;4992516;28;20926;-42
2023/10/03 01:33:09;;;;;;;202.60;191.67;;;;;;;16.90;100.00;101135.16;4992503;28;21201;-40
2023/10/03 01:35:38;;;;;;;218.20;202.37;;;;;;;16.88;100.00;101131.84;4992304;28;20432;-40
2023/10/03 01:38:05;;;;;;;211.30;197.40;;;;;;;16.86;100.00;101127.75;4991872;28;20437;-41
2023/10/03 01:40:35;;;;;;;203.47;190.37;;;;;;;16.84;100.00;101130.69;4991831;28;20466;-42
2023/10/03 01:43:03;;;;;;;205.60;192.40;;;;;;;16.82;100.00;101127.38;4991774;28;20434;-43
2023/10/03 01:45:32;;;;;;;218.03;202.47;;;;;;;16.83;100.00;101123.63;4992569;28;20438;-44
2023/10/03 01:48:04;;;;;;;203.80;190.70;;;;;;;16.81;100.00;101120.34;4991916;28;21017;-41
2023/10/03 01:50:34;;;;;;;203.10;189.40;;;;;;;16.80;100.00;101113.31;5018935;28;21062;-47
2023/10/03 01:53:02;;;;;;;208.37;194.17;;;;;;;16.79;100.00;101114.34;5011640;28;20437;-40
2023/10/03 01:55:30;;;;;;;195.50;183.03;;;;;;;16.79;100.00;101094.69;5011555;28;20924;-41
2023/10/03 01:57:59;;;;;;;218.33;201.83;;;;;;;16.76;100.00;101089.75;5011299;28;20987;-41
2023/10/03 02:00:27;;;;;;;221.43;202.87;;;;;;;16.73;100.00;101077.56;5011009;28;20564;-42
2023/10/03 02:02:57;;;;;;;200.67;186.10;;;;;;;16.69;100.00;101073.69;5011572;28;20468;-43
2023/10/03 02:05:27;;;;;;;203.40;189.30;;;;;;;16.67;100.00;101062.31;5011621;28;20499;-43
2023/10/03 02:07:57;;;;;;;198.57;185.47;;;;;;;16.63;100.00;101049.56;5011110;28;20809;-41
2023/10/03 02:10:26;;;;;;;211.10;197.07;;;;;;;16.58;100.00;101040.28;5011097;28;20539;-41
2023/10/03 02:12:55;;;;;;;208.53;195.43;;;;;;;16.58;100.00;101040.28;5011313;28;20437;-42
2023/10/03 02:15:26;;;;;;;203.20;188.93;;;;;;;16.57;100.00;101019.81;5011759;28;20534;-42
2023/10/03 02:17:57;;;;;;;198.27;184.07;;;;;;;16.55;100.00;101008.44;5011111;28;20824;-41
2023/10/03 02:20:25;;;;;;;218.47;200.43;;;;;;;16.57;100.00;101000.97;5010927;28;20551;-42
2023/10/03 02:22:57;;;;;;;196.60;184.10;;;;;;;16.58;100.00;100988.28;5011495;28;20436;-40
2023/10/03 02:25:27;;;;;;;199.50;186.40;;;;;;;16.60;100.00;100975.44;5011519;28;20461;-42
2023/10/03 02:27:56;;;;;;;200.47;186.47;;;;;;;16.62;100.00;100962.56;5018539;28;20433;-42
2023/10/03 02:30:26;;;;;;;197.13;183.93;;;;;;;16.63;100.00;100952.63;5010882;28;20456;-42
2023/10/03 02:32:55;;;;;;;194.63;181.23;;;;;;;16.63;100.00;100929.22;5010985;28;20520;-40
2023/10/03 02:35:24;;;;;;;194.90;181.13;;;;;;;16.64;100.00;100924.63;5011604;28;20437;-42
2023/10/03 02:37:55;;;;;;;195.53;180.90;;;;;;;16.64;100.00;100900.38;5011162;28;20441;-40
2023/10/03 02:40:26;;;;;;;197.57;183.83;;;;;;;16.64;100.00;100895.81;5010734;28;20468;-42
2023/10/03 02:42:55;;;;;;;200.53;186.73;;;;;;;16.66;100.00;100880.28;5011152;28;20443;-41
2023/10/03 02:45:25;;;;;;;207.27;192.23;;;;;;;16.68;100.00;100875.47;5011158;28;20432;-41
2023/10/03 02:47:58;;;;;;;209.17;192.87;;;;;;;16.69;100.00;100850.19;5011018;28;20794;-42
2023/10/03 02:50:28;;;;;;;214.00;196.90;;;;;;;16.70;100.00;100854.50;5010857;28;20457;-42
2023/10/03 02:52:56;;;;;;;207.97;192.37;;;;;;;16.71;100.00;100845.38;5011028;28;20436;-44
2023/10/03 02:55:24;;;;;;;223.57;206.73;;;;;;;16.73;100.00;100835.19;5014084;28;20460;-41
2023/10/03 02:57:51;;;;;;;220.93;203.50;;;;;;;16.75;100.00;100802.66;5014585;28;20928;-41
2023/10/03 03:00:19;;;;;;;231.17;211.97;;;;;;;16.77;100.00;100785.19;4997200;28;20476;-41
2023/10/03 03:02:49;;;;;;;217.73;199.93;;;;;;;16.76;100.00;100764.69;4995502;28;20429;-42
2023/10/03 03:05:22;;;;;;;214.60;198.70;;;;;;;16.76;100.00;100753.09;4995234;28;20441;-42
2023/10/03 03:07:54;;;;;;;207.80;192.10;;;;;;;16.76;100.00;100743.16;4995046;28;20449;-42
2023/10/03 03:10:22;;;;;;;206.10;189.57;;;;;;;16.75;100.00;100738.84;4994406;28;20465;-45
2023/10/03 03:12:50;;;;;;;217.13;198.63;;;;;;;16.74;100.00;100721.03;4995112;28;20448;-42
2023/10/03 03:15:22;;;;;;;221.50;203.93;;;;;;;16.75;100.00;100713.78;4995136;28;20434;-42
2023/10/03 03:17:50;;;;;;;223.83;205.43;;;;;;;16.76;100.00;100702.75;5002874;28;20464;-40
2023/10/03 03:20:37;;;;;;;209.80;193.73;;;;;;;16.76;100.00;100701.94;5019747;28;20461;-43
2023/10/03 03:23:09;;;;;;;209.23;194.40;;;;;;;16.79;100.00;100710.38;5014806;28;20437;-41
2023/10/03 03:25:37;;;;;;;215.50;200.40;;;;;;;16.81;100.00;100710.16;5014739;28;20849;-40
2023/10/03 03:28:12;;;;;;;220.03;205.03;;;;;;;16.85;100.00;100714.81;5022063;28;20437;-41
2023/10/03 03:30:45;;;;;;;209.07;194.53;;;;;;;16.88;100.00;100733.19;4994805;28;20528;-40
2023/10/03 03:33:14;;;;;;;216.63;202.70;;;;;;;16.91;100.00;100734.56;4994730;28;20434;-41
2023/10/03 03:35:44;;;;;;;215.33;200.33;;;;;;;16.93;100.00;100737.88;4994891;28;20433;-42
2023/10/03 03:38:16;;;;;;;214.83;200.93;;;;;;;16.94;100.00;100721.47;4994263;28;20488;-40
2023/10/03 03:40:47;;;;;;;216.53;202.10;;;;;;;16.95;100.00;100723.09;5014251;28;20488;-41
2023/10/03 03:43:16;;;;;;;198.97;185.97;;;;;;;16.96;100.00;100710.47;5013954;28;20441;-43
2023/10/03 03:45:44;;;;;;;200.27;187.83;;;;;;;16.95;100.00;100704.25;5013979;28;20436;-42
2023/10/03 03:48:14;;;;;;;208.00;193.67;;;;;;;16.92;100.00;100693.94;5013587;28;20443;-40
2023/10/03 03:50:42;;;;;;;211.03;197.33;;;;;;;16.91;100.00;100675.31;5014143;28;20519;-40
2023/10/03 03:53:12;;;;;;;212.00;198.80;;;;;;;16.89;100.00;100680.13;5013949;28;20812;-40
2023/10/03 03:55:40;;;;;;;211.60;197.90;;;;;;;16.86;100.00;100659.88;5014047;28;20440;-43
2023/10/03 03:58:14;;;;;;;213.33;198.83;;;;;;;16.86;100.00;100659.88;5013308;28;20443;-40
2023/10/03 04:00:47;;;;;;;216.27;202.97;;;;;;;16.86;100.00;100664.44;5013703;28;20475;-42
2023/10/03 04:03:15;;;;;;;208.23;195.10;;;;;;;16.88;100.00;100668.53;5014007;28;20526;-40
2023/10/03 04:05:45;;;;;;;209.07;196.10;;;;;;;16.83;100.00;100659.53;5013476;28;20960;-43
2023/10/03 04:08:15;;;;;;;207.50;193.83;;;;;;;16.84;100.00;100637.78;5012846;28;20498;-46
2023/10/03 04:10:44;;;;;;;197.70;185.10;;;;;;;16.85;100.00;100623.22;5013457;28;20781;-42
2023/10/03 04:13:13;;;;;;;201.60;189.03;;;;;;;16.86;100.00;100613.28;5013804;28;20860;-42
2023/10/03 04:15:42;;;;;;;207.23;194.53;;;;;;;16.86;100.00;100599.81;5013754;28;20519;-41
2023/10/03 04:18:10;;;;;;;200.33;188.50;;;;;;;16.86;100.00;100591.72;5012987;28;20457;-44
2023/10/03 04:20:40;;;;;;;201.43;189.40;;;;;;;16.85;100.00;100582.00;5013238;28;20482;-42
2023/10/03 04:23:08;;;;;;;195.17;183.37;;;;;;;16.85;100.00;100553.19;5021489;28;20491;-43
2023/10/03 04:25:39;;;;;;;200.63;188.83;;;;;;;16.84;100.00;100542.69;5013537;28;20824;-41
2023/10/03 04:28:09;;;;;;;200.33;189.43;;;;;;;16.85;100.00;100533.53;5012868;28;20433;-41
2023/10/03 04:30:37;;;;;;;189.53;178.00;;;;;;;16.84;100.00;100540.00;5012977;28;20864;-43
2023/10/03 04:33:05;;;;;;;192.30;181.90;;;;;;;16.85;100.00;100544.31;5013132;28;20441;-42
2023/10/03 04:35:35;;;;;;;187.03;176.63;;;;;;;16.87;100.00;100521.47;5013210;28;20437;-43
2023/10/03 04:38:04;;;;;;;184.00;173.43;;;;;;;16.88;100.00;100512.31;5012485;28;20495;-45
2023/10/03 04:40:34;;;;;;;182.67;172.97;;;;;;;16.91;100.00;100505.63;5012543;28;20490;-40
2023/10/03 04:43:10;;;;;;;181.27;172.10;;;;;;;16.91;100.00;100506.44;5013011;28;20905;-42
2023/10/03 04:45:39;;;;;;;176.73;167.17;;;;;;;16.93;100.00;100498.97;5013157;28;20443;-44
2023/10/03 04:48:08;;;;;;;171.60;162.77;;;;;;;16.94;100.00;100497.06;5012396;28;20964;-42
2023/10/03 04:50:37;;;;;;;178.10;168.70;;;;;;;16.94;100.00;100487.09;5012572;28;20464;-42
2023/10/03 04:53:07;;;;;;;176.33;166.33;;;;;;;16.95;100.00;100463.69;5012680;28;20924;-42
2023/10/03 04:55:34;;;;;;;173.63;164.40;;;;;;;16.92;100.00;100456.09;5012829;28;21015;-42
2023/10/03 04:58:04;;;;;;;171.77;162.90;;;;;;;16.93;100.00;100460.44;5012509;28;20491;-40
2023/10/03 05:00:31;;;;;;;169.90;160.60;;;;;;;16.92;100.00;100464.16;5012332;28;20523;-43
2023/10/03 05:03:04;;;;;;;175.10;166.13;;;;;;;16.90;100.00;100453.66;5012390;28;20987;-40
2023/10/03 05:05:32;;;;;;;171.97;163.47;;;;;;;16.88;100.00;100431.53;5012723;28;20975;-40
2023/10/03 05:08:00;;;;;;;169.00;160.70;;;;;;;16.86;100.00;100419.38;5012367;28;20464;-43
2023/10/03 05:10:30;;;;;;;167.53;158.33;;;;;;;16.85;100.00;100417.72;5012046;28;20461;-41
2023/10/03 05:12:58;;;;;;;169.63;160.80;;;;;;;16.84;100.00;100410.72;5012375;28;20437;-43
2023/10/03 05:15:30;;;;;;;160.30;152.53;;;;;;;16.84;100.00;100402.66;5012408;28;20500;-40
2023/10/03 05:17:58;;;;;;;157.60;149.83;;;;;;;16.85;100.00;100399.69;5011374;28;20465;-41
2023/10/03 05:20:35;;;;;;;161.10;153.50;;;;;;;16.84;100.00;100381.09;5011892;28;20492;-42
2023/10/03 05:23:03;;;;;;;152.90;145.50;;;;;;;16.84;100.00;100381.91;5012741;28;20472;-41
2023/10/03 05:25:36;;;;;;;156.00;148.33;;;;;;;16.81;100.00;100382.41;5019405;28;20936;-40
2023/10/03 05:28:05;;;;;;;156.60;149.40;;;;;;;16.80;100.00;100369.19;5011818;28;20433;-41
2023/10/03 05:30:38;;;;;;;147.63;140.43;;;;;;;16.76;100.00;100368.03;5011753;28;20464;-42
2023/10/03 05:33:06;;;;;;;150.83;143.67;;;;;;;16.75;100.00;100361.03;5012181;28;20479;-43
2023/10/03 05:35:35;;;;;;;148.47;141.30;;;;;;;16.71;100.00;100344.53;5012236;28;20436;-42
2023/10/03 05:38:07;;;;;;;149.63;142.53;;;;;;;16.71;100.00;100331.09;5011774;28;20433;-42
2023/10/03 05:40:35;;;;;;;149.10;141.50;;;;;;;16.69;100.00;100332.41;5011643;28;20464;-41
2023/10/03 05:43:04;;;;;;;146.20;138.70;;;;;;;16.69;100.00;100345.84;5011895;28;20473;-42
2023/10/03 05:45:36;;;;;;;139.33;133.23;;;;;;;16.70;100.00;100348.28;5011942;28;20475;-43
2023/10/03 05:48:05;;;;;;;143.20;136.07;;;;;;;16.70;100.00;100342.09;5011587;28;20433;-41
2023/10/03 05:50:34;;;;;;;154.33;146.70;;;;;;;16.70;100.00;100350.97;5011494;28;20584;-40
2023/10/03 05:53:06;;;;;;;145.17;138.27;;;;;;;16.69;100.00;100344.00;5011810;28;20436;-44
2023/10/03 05:55:34;;;;;;;146.80;139.90;;;;;;;16.71;100.00;100343.72;5012046;28;20437;-43
2023/10/03 05:58:02;;;;;;;145.50;138.40;;;;;;;16.69;100.00;100341.28;5011473;28;20523;-41
2023/10/03 06:00:31;;;;;;;138.43;131.77;;;;;;;16.69;100.00;100335.91;5011413;28;20460;-41
2023/10/03 06:03:00;;;;;;;133.77;127.37;;;;;;;16.68;100.00;100334.25;5011501;28;20476;-40
2023/10/03 06:05:29;;;;;;;137.83;131.43;;;;;;;16.70;100.00;100326.75;5011636;28;20933;-40
2023/10/03 06:07:57;;;;;;;131.13;125.07;;;;;;;16.74;100.00;100316.31;5011427;28;20529;-41
2023/10/03 06:10:25;;;;;;;136.23;129.30;;;;;;;16.74;100.00;100317.13;5011066;28;20465;-41
2023/10/03 06:12:54;;;;;;;121.30;115.87;;;;;;;16.77;100.00;100310.44;5011462;28;20520;-40
2023/10/03 06:15:24;;;;;;;127.73;121.83;;;;;;;16.79;100.00;100305.59;5012645;28;20527;-41
2023/10/03 06:17:52;;;;;;;119.93;113.83;;;;;;;16.81;100.00;100295.41;5010799;28;20437;-43
2023/10/03 06:20:24;;;;;;;113.83;108.00;;;;;;;16.82;100.00;100297.03;5010857;28;20540;-41
2023/10/03 06:22:52;;;;;;;112.47;107.07;;;;;;;16.87;100.00;100289.84;5011255;28;20479;-43
2023/10/03 06:25:20;;;;;;;105.10;99.50;;;;;;;16.95;100.00;100294.00;5011475;28;20439;-42
2023/10/03 06:27:47;;;;;;;99.70;94.43;;;;;;;16.98;100.00;100288.94;5011344;28;20433;-41
2023/10/03 06:30:17;;;;;;;97.67;92.10;;;;;;;17.05;100.00;100294.94;5016621;28;20495;-43
2023/10/03 06:32:45;;;;;;;93.80;88.70;;;;;;;17.10;100.00;100295.00;5021354;28;20554;-40
2023/10/03 06:35:13;;;;;;;87.60;83.00;;;;;;;17.16;100.00;100282.41;5015420;28;20440;-42
2023/10/03 06:37:42;;;;;;;83.83;78.13;;;;;;;17.22;100.00;100275.22;5020408;28;20482;-40
2023/10/03 06:40:13;;;;;;;80.17;75.33;;;;;;;17.27;100.00;100269.88;5034645;28;20466;-42
2023/10/03 06:42:41;;;;;;;79.40;74.43;;;;;;;17.33;100.00;100268.84;5034868;28;20533;-44
2023/10/03 06:45:11;;;;;;;74.60;69.30;;;;;;;17.39;100.00;100274.06;5035074;28;20432;-42
2023/10/03 06:47:39;;;;;;;71.07;66.67;;;;;;;17.47;100.00;100268.22;5034774;28;20527;-40
2023/10/03 06:50:08;;;;;;;65.90;61.47;;;;;;;17.61;100.00;100256.03;5034528;28;20463;-41
2023/10/03 06:52:36;;;;;;;66.60;62.40;;;;;;;17.71;100.00;100232.91;5034976;28;20432;-42
2023/10/03 06:55:06;;;;;;;63.10;58.80;;;;;;;17.83;100.00;100255.94;5034807;28;20850;-45
2023/10/03 06:57:36;;;;;;;58.60;54.20;;;;;;;17.93;100.00;100239.84;5022280;28;20440;-40
2023/10/03 07:00:04;;;;;;;55.23;51.30;;;;;;;18.04;100.00;100252.34;5014447;28;20460;-44
2023/10/03 07:02:32;;;;;;;56.30;52.40;;;;;;;18.17;100.00;100260.03;5014944;28;20475;-44
2023/10/03 07:05:00;;;;;;;57.60;53.07;;;;;;;18.13;100.00;100250.00;5014806;28;20432;-41
2023/10/03 07:07:27;;;;;;;56.20;52.10;;;;;;;18.17;100.00;100240.31;5015004;28;20846;-42
2023/10/03 07:09:55;;;;;;;52.77;48.87;;;;;;;18.16;100.00;100235.97;5014030;28;20467;-41
2023/10/03 07:12:25;;;;;;;50.83;47.37;;;;;;;18.11;100.00;100247.56;5014555;28;20440;-46
2023/10/03 07:14:53;;;;;;;57.20;53.00;;;;;;;18.12;100.00;100248.38;5014912;28;20475;-46
2023/10/03 07:17:20;;;;;;;55.70;51.47;;;;;;;18.11;100.00;100241.34;5014522;28;21106;-41
2023/10/03 07:19:48;;;;;;;57.03;53.03;;;;;;;18.09;100.00;100238.94;5013891;28;20754;-42
2023/10/03 07:22:18;;;;;;;53.03;49.03;;;;;;;18.14;100.00;100228.16;5015870;28;20436;-42
2023/10/03 07:24:46;;;;;;;51.47;47.13;;;;;;;18.13;100.00;100228.41;5034257;28;20569;-43
2023/10/03 07:27:15;;;;;;;53.70;49.60;;;;;;;18.15;100.00;100229.81;5024857;28;20519;-41
2023/10/03 07:29:44;;;;;;;53.37;49.47;;;;;;;18.11;100.00;100217.88;5027120;28;20460;-43
2023/10/03 07:32:14;;;;;;;52.63;48.27;;;;;;;18.08;100.00;100229.19;5034120;28;20462;-40
2023/10/03 07:34:45;;;;;;;52.23;48.10;;;;;;;18.04;100.00;100230.78;5034196;28;20435;-41
2023/10/03 07:37:15;;;;;;;54.93;50.73;;;;;;;18.05;100.00;100226.19;5034065;28;20464;-45
2023/10/03 07:39:43;;;;;;;51.20;47.10;;;;;;;18.08;100.00;100214.88;5032347;28;20464;-43
2023/10/03 07:42:11;;;;;;;54.10;49.60;;;;;;;18.19;100.00;100213.88;5033790;28;20961;-45
2023/10/03 07:44:39;;;;;;;52.60;48.40;;;;;;;18.19;100.00;100212.00;5034001;28;20455;-44
2023/10/03 07:47:08;;;;;;;53.03;48.80;;;;;;;18.22;100.00;100205.25;5033762;28;20431;-40
2023/10/03 07:49:37;;;;;;;51.80;47.80;;;;;;;18.29;100.00;100213.16;5028802;28;20516;-42
2023/10/03 07:52:05;;;;;;;53.57;49.40;;;;;;;18.31;100.00;100202.91;5014092;28;20433;-39
2023/10/03 07:54:36;;;;;;;51.93;48.13;;;;;;;18.27;100.00;100202.63;5013834;28;20983;-42
2023/10/03 07:57:05;;;;;;;53.67;49.73;;;;;;;18.31;100.00;100200.22;5013912;28;20820;-40
2023/10/03 07:59:33;;;;;;;55.93;51.70;;;;;;;18.32;100.00;100210.75;5012554;28;20527;-45
2023/10/03 08:02:05;;;;;;;57.07;52.53;;;;;;;18.34;100.00;100203.19;5029510;28;20482;-41
2023/10/03 08:04:37;;;;;;;54.80;49.93;;;;;;;18.36;100.00;100202.94;5033629;28;20512;-41
2023/10/03 08:07:05;;;;;;;58.77;53.73;;;;;;;18.34;100.00;100189.69;5033379;28;20436;-41
2023/10/03 08:09:33;;;;;;;60.20;54.83;;;;;;;18.39;100.00;100207.81;5032662;28;21000;-43
2023/10/03 08:12:11;;;;;;;63.00;56.80;;;;;;;18.37;100.00;100194.56;5033279;28;20439;-40
2023/10/03 08:14:40;;;;;;;61.40;56.30;;;;;;;18.42;100.00;100186.53;5013313;28;20432;-41
2023/10/03 08:17:11;;;;;;;63.20;56.83;;;;;;;18.47;100.00;100194.66;5013532;28;20428;-39
2023/10/03 08:19:45;;;;;;;65.23;59.60;;;;;;;18.54;100.00;100199.84;5012940;28;20991;-43
2023/10/03 08:22:14;;;;;;;64.33;59.00;;;;;;;18.62;100.00;100205.56;5013582;28;20460;-40
2023/10/03 08:24:43;;;;;;;61.73;56.87;;;;;;;18.65;100.00;100199.63;5013103;28;20504;-40
2023/10/03 08:27:18;;;;;;;60.57;55.70;;;;;;;18.67;100.00;100202.88;5013045;28;20516;-43
2023/10/03 08:29:50;;;;;;;58.63;53.73;;;;;;;18.73;100.00;100201.00;5012447;28;20464;-42
2023/10/03 08:32:18;;;;;;;60.67;55.40;;;;;;;18.75;100.00;100206.97;5013194;28;20444;-42
2023/10/03 08:34:48;;;;;;;58.80;53.93;;;;;;;18.79;100.00;100199.97;5013141;28;20432;-42
2023/10/03 08:37:21;;;;;;;59.10;53.93;;;;;;;18.82;100.00;100198.66;5018158;28;20453;-41
2023/10/03 08:39:50;;;;;;;55.47;51.10;;;;;;;18.94;100.00;100197.31;5017852;28;20472;-42
2023/10/03 08:42:22;;;;;;;57.87;52.97;;;;;;;19.06;100.00;100195.22;5019210;28;20816;-41
2023/10/03 08:44:51;;;;;;;58.10;53.00;;;;;;;19.13;100.00;100195.78;5018854;28;20508;-40
2023/10/03 08:47:28;;;;;;;56.27;51.57;;;;;;;19.17;100.00;100194.19;5018124;28;20443;-44
2023/10/03 08:50:10;;;;;;;58.27;53.27;;;;;;;19.19;100.00;100197.41;5017298;28;20471;-41
2023/10/03 08:52:46;;;;;;;60.93;55.90;;;;;;;19.25;100.00;100185.53;5017730;28;20518;-43
2023/10/03 08:55:19;;;;;;;58.67;54.07;;;;;;;19.20;100.00;100163.88;5018641;28;20447;-40
2023/10/03 08:57:47;;;;;;;57.97;53.43;;;;;;;19.30;100.00;100163.09;5017722;28;20459;-41
2023/10/03 09:00:16;;;;;;;58.20;53.90;;;;;;;19.40;100.00;100182.09;5017096;28;20468;-40
2023/10/03 09:02:46;;;;;;;57.47;52.67;;;;;;;19.50;100.00;100181.31;5019463;28;20434;-41
2023/10/03 09:05:24;;;;;;;58.03;53.53;;;;;;;19.56;100.00;100180.22;5017690;28;20479;-40
2023/10/03 09:07:55;;;;;;;56.23;51.70;;;;;;;19.65;100.00;100173.19;5017827;28;20464;-42
2023/10/03 09:10:23;;;;;;;56.83;52.20;;;;;;;19.75;100.00;100174.00;5017117;28;20468;-42
2023/10/03 09:12:51;;;;;;;56.20;51.73;;;;;;;19.74;100.00;100169.66;5018120;28;21226;-42
2023/10/03 09:15:22;;;;;;;54.10;49.90;;;;;;;19.75;100.00;100186.72;5017930;28;20421;-44
2023/10/03 09:17:51;;;;;;;57.33;52.53;;;;;;;19.80;100.00;100173.22;5017577;28;20875;-44
2023/10/03 09:20:24;;;;;;;53.97;49.93;;;;;;;19.81;100.00;100167.50;5016989;28;20523;-43
2023/10/03 09:23:05;;;;;;;53.90;49.50;;;;;;;19.98;100.00;100166.44;5018249;28;20495;-43
2023/10/03 09:25:33;;;;;;;52.67;48.90;;;;;;;19.95;100.00;100165.06;5019063;28;20437;-41
2023/10/03 09:28:04;;;;;;;51.87;47.77;;;;;;;19.98;100.00;100153.69;5017222;28;20434;-40
2023/10/03 09:30:37;;;;;;;53.83;48.80;;;;;;;20.10;100.00;100156.91;5017243;28;20464;-40
2023/10/03 09:33:05;;;;;;;50.37;46.30;;;;;;;20.13;100.00;100150.97;5017701;28;20424;-43
2023/10/03 09:35:39;;;;;;;48.93;45.10;;;;;;;20.16;100.00;100160.47;5021461;28;20859;-41
2023/10/03 09:38:08;;;;;;;49.80;45.87;;;;;;;20.11;100.00;100150.44;5024454;28;20436;-40
2023/10/03 09:40:49;;;;;;;46.83;43.07;;;;;;;20.21;100.00;100141.50;5011391;28;20514;-43
2023/10/03 09:43:19;;;;;;;49.60;46.07;;;;;;;20.25;100.00;100156.13;5011876;28;20428;-44
2023/10/03 09:45:47;;;;;;;50.13;46.47;;;;;;;20.16;100.00;100133.38;5011884;28;20428;-39
2023/10/03 09:48:15;;;;;;;47.03;43.37;;;;;;;20.12;100.00;100145.84;5011105;28;20448;-42
2023/10/03 09:50:51;;;;;;;48.47;44.97;;;;;;;20.20;100.00;100143.38;5027591;28;20433;-42
2023/10/03 09:53:27;;;;;;;45.97;42.37;;;;;;;20.34;100.00;100139.03;5011939;28;20527;-43
2023/10/03 09:55:56;;;;;;;48.20;44.43;;;;;;;20.36;100.00;100125.25;5011926;28;20812;-42
2023/10/03 09:58:31;;;;;;;48.87;44.80;;;;;;;20.41;100.00;100144.16;5011060;28;20519;-41
2023/10/03 10:00:59;;;;;;;48.23;44.67;;;;;;;20.27;100.00;100130.41;5026094;28;21159;-40
2023/10/03 10:03:33;;;;;;;45.33;41.43;;;;;;;20.08;100.00;100120.38;5020907;28;20428;-39
2023/10/03 10:06:19;;;;;;;47.07;43.47;;;;;;;20.01;100.00;100145.03;5010331;28;20467;-42
2023/10/03 10:08:57;;;;;;;47.90;44.07;;;;;;;20.24;100.00;100143.66;5009632;28;20528;-42
2023/10/03 10:11:27;;;;;;;48.87;44.60;;;;;;;20.40;100.00;100134.41;5009874;28;21021;-40
2023/10/03 10:14:08;;;;;;;47.77;43.50;;;;;;;20.34;100.00;100143.63;5012587;28;20508;-43
2023/10/03 10:16:36;;;;;;;48.57;44.07;;;;;;;20.30;100.00;100159.66;5011694;28;20428;-42
2023/10/03 10:19:04;;;;;;;45.60;42.33;;;;;;;20.26;100.00;100163.16;5018112;28;20465;-41
2023/10/03 10:21:37;;;;;;;47.60;43.60;;;;;;;20.06;100.00;100160.47;5024051;28;20442;-42
2023/10/03 10:24:25;;;;;;;47.63;43.37;;;;;;;19.86;100.00;100172.91;5011497;28;20568;-42
2023/10/03 10:26:53;;;;;;;45.03;41.80;;;;;;;19.77;100.00;100182.66;5011489;28;20460;-42
2023/10/03 10:29:24;;;;;;;42.13;39.13;;;;;;;19.73;100.00;100202.41;5010333;28;20461;-41
2023/10/03 10:31:57;;;;;;;45.50;42.17;;;;;;;19.71;100.00;100218.13;5011235;28;20461;-40
2023/10/03 10:34:35;;;;;;;43.20;40.20;;;;;;;19.51;100.00;100242.41;5011214;28;21013;-38
2023/10/03 10:37:09;;;;;;;35.80;33.47;;;;;;;19.09;100.00;100254.13;5011248;28;20467;-42
2023/10/03 10:40:09;;;;;;;33.73;32.13;;;;;;;18.79;100.00;100278.28;5010684;28;20465;-40
2023/10/03 10:42:59;;;;;;;30.77;29.57;;;;;;;18.36;100.00;100300.13;5011445;28;20428;-44
2023/10/03 10:45:27;;;;;;;31.90;30.30;;;;;;;18.00;100.00;100296.31;5011148;28;20480;-42
2023/10/03 10:47:56;;;;;;;28.70;27.37;;;;;;;17.97;100.00;100326.50;5011110;28;20848;-42
2023/10/03 10:50:27;;;;;;;28.00;26.60;;;;;;;18.00;100.00;100334.09;5010551;28;20465;-40
2023/10/03 10:52:58;;;;;;;28.27;27.17;;;;;;;17.67;100.00;100337.78;5011202;28;20852;-42
2023/10/03 10:55:27;;;;;;;27.10;26.10;;;;;;;17.49;100.00;100325.41;5011428;28;20800;-45
2023/10/03 10:58:08;;;;;;;27.43;26.27;;;;;;;17.49;100.00;100357.75;5019340;28;20440;-43
2023/10/03 11:00:36;;;;;;;29.97;28.63;;;;;;;17.61;100.00;100365.75;5010324;28;20534;-41
2023/10/03 11:03:06;;;;;;;28.10;26.90;;;;;;;17.53;100.00;100379.66;5018179;28;20432;-40
2023/10/03 11:05:42;;;;;;;29.30;28.00;;;;;;;17.79;100.00;100380.78;5030690;28;20507;-42